sensor_id;sensor_type;location;lat;lon;timestamp;P1;durP1;ratioP1;P2;durP2;ratioP2
25125;SDS011;13106;50.808;5.670;2022-12-20T00:01:13;2.50;;;1.48;;
25125;SDS011;13106;50.808;5.670;2022-12-20T00:03:39;4.03;;;1.52;;
25125;SDS011;13106;50.808;5.670;2022-12-20T00:06:06;3.53;;;1.50;;
25125;SDS011;13106;50.808;5.670;2022-12-20T00:08:32;2.20;;;1.38;;
25125;SDS011;13106;50.808;5.670;2022-12-20T00:10:59;3.80;;;1.63;;
25125;SDS011;13106;50.808;5.670;2022-12-20T00:13:25;3.10;;;1.42;;
25125;SDS011;13106;50.808;5.670;2022-12-20T00:16:04;3.03;;;1.60;;
25125;SDS011;13106;50.808;5.670;2022-12-20T00:18:30;3.05;;;1.50;;
25125;SDS011;13106;50.808;5.670;2022-12-20T00:21:00;2.60;;;1.80;;
25125;SDS011;13106;50.808;5.670;2022-12-20T00:23:26;1.95;;;1.33;;
25125;SDS011;13106;50.808;5.670;2022-12-20T00:25:58;2.95;;;1.52;;
25125;SDS011;13106;50.808;5.670;2022-12-20T00:28:24;2.83;;;1.50;;
25125;SDS011;13106;50.808;5.670;2022-12-20T00:30:54;3.67;;;1.83;;
25125;SDS011;13106;50.808;5.670;2022-12-20T00:33:20;2.00;;;1.70;;
25125;SDS011;13106;50.808;5.670;2022-12-20T00:35:46;2.55;;;1.40;;
25125;SDS011;13106;50.808;5.670;2022-12-20T00:38:12;3.65;;;1.83;;
25125;SDS011;13106;50.808;5.670;2022-12-20T00:40:38;2.30;;;1.70;;
25125;SDS011;13106;50.808;5.670;2022-12-20T00:43:05;3.05;;;1.65;;
25125;SDS011;13106;50.808;5.670;2022-12-20T00:45:31;2.85;;;1.58;;
25125;SDS011;13106;50.808;5.670;2022-12-20T00:47:57;2.88;;;1.70;;
25125;SDS011;13106;50.808;5.670;2022-12-20T00:50:23;2.22;;;1.50;;
25125;SDS011;13106;50.808;5.670;2022-12-20T00:52:49;4.20;;;1.52;;
25125;SDS011;13106;50.808;5.670;2022-12-20T00:55:15;2.95;;;1.58;;
25125;SDS011;13106;50.808;5.670;2022-12-20T00:57:43;3.00;;;1.50;;
25125;SDS011;13106;50.808;5.670;2022-12-20T01:00:09;3.67;;;1.70;;
25125;SDS011;13106;50.808;5.670;2022-12-20T01:02:36;6.45;;;1.52;;
25125;SDS011;13106;50.808;5.670;2022-12-20T01:05:02;1.55;;;1.25;;
25125;SDS011;13106;50.808;5.670;2022-12-20T01:07:28;4.38;;;1.58;;
25125;SDS011;13106;50.808;5.670;2022-12-20T01:09:54;3.05;;;1.50;;
25125;SDS011;13106;50.808;5.670;2022-12-20T01:12:20;2.72;;;1.75;;
25125;SDS011;13106;50.808;5.670;2022-12-20T01:14:46;5.68;;;1.80;;
25125;SDS011;13106;50.808;5.670;2022-12-20T01:17:12;3.08;;;1.75;;
25125;SDS011;13106;50.808;5.670;2022-12-20T01:19:39;2.38;;;1.50;;
25125;SDS011;13106;50.808;5.670;2022-12-20T01:22:05;3.00;;;1.50;;
25125;SDS011;13106;50.808;5.670;2022-12-20T01:24:31;3.22;;;1.48;;
25125;SDS011;13106;50.808;5.670;2022-12-20T01:26:57;2.13;;;1.38;;
25125;SDS011;13106;50.808;5.670;2022-12-20T01:29:23;2.30;;;1.60;;
25125;SDS011;13106;50.808;5.670;2022-12-20T01:31:49;5.03;;;1.58;;
25125;SDS011;13106;50.808;5.670;2022-12-20T01:34:15;3.20;;;1.40;;
25125;SDS011;13106;50.808;5.670;2022-12-20T01:36:41;2.70;;;1.48;;
25125;SDS011;13106;50.808;5.670;2022-12-20T01:39:10;3.10;;;1.85;;
25125;SDS011;13106;50.808;5.670;2022-12-20T01:41:36;2.05;;;1.50;;
25125;SDS011;13106;50.808;5.670;2022-12-20T01:46:51;2.72;;;1.60;;
25125;SDS011;13106;50.808;5.670;2022-12-20T01:51:44;2.60;;;1.73;;
25125;SDS011;13106;50.808;5.670;2022-12-20T01:54:13;2.03;;;1.50;;
25125;SDS011;13106;50.808;5.670;2022-12-20T01:56:42;2.40;;;1.45;;
25125;SDS011;13106;50.808;5.670;2022-12-20T01:59:10;4.45;;;1.75;;
25125;SDS011;13106;50.808;5.670;2022-12-20T02:01:37;2.70;;;1.45;;
25125;SDS011;13106;50.808;5.670;2022-12-20T02:04:04;2.33;;;1.50;;
25125;SDS011;13106;50.808;5.670;2022-12-20T02:06:30;2.15;;;1.40;;
25125;SDS011;13106;50.808;5.670;2022-12-20T02:08:57;4.45;;;1.60;;
25125;SDS011;13106;50.808;5.670;2022-12-20T02:16:23;1.60;;;1.40;;
25125;SDS011;13106;50.808;5.670;2022-12-20T02:18:59;3.92;;;1.90;;
25125;SDS011;13106;50.808;5.670;2022-12-20T02:21:38;2.67;;;1.50;;
25125;SDS011;13106;50.808;5.670;2022-12-20T02:26:45;2.92;;;1.60;;
25125;SDS011;13106;50.808;5.670;2022-12-20T02:31:49;3.40;;;1.52;;
25125;SDS011;13106;50.808;5.670;2022-12-20T02:34:17;1.63;;;1.52;;
25125;SDS011;13106;50.808;5.670;2022-12-20T02:36:45;3.63;;;1.70;;
25125;SDS011;13106;50.808;5.670;2022-12-20T02:39:12;8.25;;;2.33;;
25125;SDS011;13106;50.808;5.670;2022-12-20T02:41:42;3.67;;;1.80;;
25125;SDS011;13106;50.808;5.670;2022-12-20T02:44:10;3.35;;;1.60;;
25125;SDS011;13106;50.808;5.670;2022-12-20T02:46:55;3.42;;;1.83;;
25125;SDS011;13106;50.808;5.670;2022-12-20T02:49:25;3.88;;;2.22;;
25125;SDS011;13106;50.808;5.670;2022-12-20T02:51:53;2.22;;;1.60;;
25125;SDS011;13106;50.808;5.670;2022-12-20T02:54:20;2.33;;;1.70;;
25125;SDS011;13106;50.808;5.670;2022-12-20T02:56:51;2.20;;;1.70;;
25125;SDS011;13106;50.808;5.670;2022-12-20T02:59:24;3.28;;;1.95;;
25125;SDS011;13106;50.808;5.670;2022-12-20T03:01:52;3.38;;;1.52;;
25125;SDS011;13106;50.808;5.670;2022-12-20T03:04:20;3.47;;;1.92;;
25125;SDS011;13106;50.808;5.670;2022-12-20T03:06:58;1.90;;;1.73;;
25125;SDS011;13106;50.808;5.670;2022-12-20T03:09:24;3.38;;;1.70;;
25125;SDS011;13106;50.808;5.670;2022-12-20T03:11:51;5.00;;;1.95;;
25125;SDS011;13106;50.808;5.670;2022-12-20T03:14:18;2.15;;;1.73;;
25125;SDS011;13106;50.808;5.670;2022-12-20T03:16:44;3.55;;;1.83;;
25125;SDS011;13106;50.808;5.670;2022-12-20T03:19:10;2.40;;;1.67;;
25125;SDS011;13106;50.808;5.670;2022-12-20T03:21:36;2.35;;;1.70;;
25125;SDS011;13106;50.808;5.670;2022-12-20T03:24:02;3.75;;;1.60;;
25125;SDS011;13106;50.808;5.670;2022-12-20T03:26:28;1.80;;;1.63;;
25125;SDS011;13106;50.808;5.670;2022-12-20T03:28:54;4.20;;;1.98;;
25125;SDS011;13106;50.808;5.670;2022-12-20T03:31:20;2.97;;;1.77;;
25125;SDS011;13106;50.808;5.670;2022-12-20T03:33:46;3.33;;;1.73;;
25125;SDS011;13106;50.808;5.670;2022-12-20T03:36:12;3.03;;;1.90;;
25125;SDS011;13106;50.808;5.670;2022-12-20T03:38:38;4.22;;;1.85;;
25125;SDS011;13106;50.808;5.670;2022-12-20T03:41:04;3.85;;;1.67;;
25125;SDS011;13106;50.808;5.670;2022-12-20T03:43:30;4.18;;;1.98;;
25125;SDS011;13106;50.808;5.670;2022-12-20T03:45:56;3.35;;;1.90;;
25125;SDS011;13106;50.808;5.670;2022-12-20T03:48:22;3.08;;;2.13;;
25125;SDS011;13106;50.808;5.670;2022-12-20T03:50:48;3.55;;;2.13;;
25125;SDS011;13106;50.808;5.670;2022-12-20T03:53:14;2.85;;;1.83;;
25125;SDS011;13106;50.808;5.670;2022-12-20T03:55:40;4.20;;;1.98;;
25125;SDS011;13106;50.808;5.670;2022-12-20T03:58:06;3.88;;;2.00;;
25125;SDS011;13106;50.808;5.670;2022-12-20T04:00:33;3.53;;;2.03;;
25125;SDS011;13106;50.808;5.670;2022-12-20T04:02:59;8.80;;;2.17;;
25125;SDS011;13106;50.808;5.670;2022-12-20T04:05:25;2.08;;;1.52;;
25125;SDS011;13106;50.808;5.670;2022-12-20T04:07:51;2.65;;;1.60;;
25125;SDS011;13106;50.808;5.670;2022-12-20T04:10:17;2.42;;;1.55;;
25125;SDS011;13106;50.808;5.670;2022-12-20T04:12:43;2.55;;;1.70;;
25125;SDS011;13106;50.808;5.670;2022-12-20T04:15:09;3.30;;;1.50;;
25125;SDS011;13106;50.808;5.670;2022-12-20T04:17:35;7.40;;;1.88;;
25125;SDS011;13106;50.808;5.670;2022-12-20T04:20:01;5.25;;;1.80;;
25125;SDS011;13106;50.808;5.670;2022-12-20T04:22:46;4.35;;;1.60;;
25125;SDS011;13106;50.808;5.670;2022-12-20T04:25:12;2.85;;;1.60;;
25125;SDS011;13106;50.808;5.670;2022-12-20T04:27:38;2.15;;;1.60;;
25125;SDS011;13106;50.808;5.670;2022-12-20T04:30:04;2.95;;;1.70;;
25125;SDS011;13106;50.808;5.670;2022-12-20T04:32:30;6.80;;;1.70;;
25125;SDS011;13106;50.808;5.670;2022-12-20T04:34:56;2.08;;;1.40;;
25125;SDS011;13106;50.808;5.670;2022-12-20T04:37:22;2.95;;;1.60;;
25125;SDS011;13106;50.808;5.670;2022-12-20T04:39:48;1.90;;;1.30;;
25125;SDS011;13106;50.808;5.670;2022-12-20T04:42:14;3.40;;;1.50;;
25125;SDS011;13106;50.808;5.670;2022-12-20T04:44:40;2.75;;;1.88;;
25125;SDS011;13106;50.808;5.670;2022-12-20T04:47:06;3.92;;;1.45;;
25125;SDS011;13106;50.808;5.670;2022-12-20T04:49:34;1.92;;;1.33;;
25125;SDS011;13106;50.808;5.670;2022-12-20T04:52:00;2.25;;;1.48;;
25125;SDS011;13106;50.808;5.670;2022-12-20T04:54:46;2.97;;;1.60;;
25125;SDS011;13106;50.808;5.670;2022-12-20T04:57:12;2.50;;;1.48;;
25125;SDS011;13106;50.808;5.670;2022-12-20T04:59:38;2.08;;;1.60;;
25125;SDS011;13106;50.808;5.670;2022-12-20T05:02:04;2.08;;;1.40;;
25125;SDS011;13106;50.808;5.670;2022-12-20T05:04:30;3.42;;;1.58;;
25125;SDS011;13106;50.808;5.670;2022-12-20T05:06:56;2.72;;;1.30;;
25125;SDS011;13106;50.808;5.670;2022-12-20T05:09:22;3.38;;;1.50;;
25125;SDS011;13106;50.808;5.670;2022-12-20T05:11:49;2.75;;;1.40;;
25125;SDS011;13106;50.808;5.670;2022-12-20T05:14:14;3.28;;;1.35;;
25125;SDS011;13106;50.808;5.670;2022-12-20T05:16:40;1.58;;;1.48;;
25125;SDS011;13106;50.808;5.670;2022-12-20T05:19:06;3.90;;;1.52;;
25125;SDS011;13106;50.808;5.670;2022-12-20T05:21:32;2.22;;;1.17;;
25125;SDS011;13106;50.808;5.670;2022-12-20T05:24:17;3.58;;;1.27;;
25125;SDS011;13106;50.808;5.670;2022-12-20T05:27:02;2.28;;;1.50;;
25125;SDS011;13106;50.808;5.670;2022-12-20T05:29:28;1.85;;;1.40;;
25125;SDS011;13106;50.808;5.670;2022-12-20T05:31:54;2.83;;;1.33;;
25125;SDS011;13106;50.808;5.670;2022-12-20T05:34:20;2.15;;;1.35;;
25125;SDS011;13106;50.808;5.670;2022-12-20T05:36:46;1.80;;;1.35;;
25125;SDS011;13106;50.808;5.670;2022-12-20T05:39:12;2.97;;;1.30;;
25125;SDS011;13106;50.808;5.670;2022-12-20T05:41:38;2.17;;;1.45;;
25125;SDS011;13106;50.808;5.670;2022-12-20T05:44:05;2.38;;;1.30;;
25125;SDS011;13106;50.808;5.670;2022-12-20T05:46:31;4.03;;;1.45;;
25125;SDS011;13106;50.808;5.670;2022-12-20T05:48:57;4.10;;;1.30;;
25125;SDS011;13106;50.808;5.670;2022-12-20T05:51:23;3.60;;;1.55;;
25125;SDS011;13106;50.808;5.670;2022-12-20T05:53:50;2.03;;;1.20;;
25125;SDS011;13106;50.808;5.670;2022-12-20T05:56:16;3.35;;;1.60;;
25125;SDS011;13106;50.808;5.670;2022-12-20T05:58:42;1.40;;;1.17;;
25125;SDS011;13106;50.808;5.670;2022-12-20T06:01:08;1.65;;;1.30;;
25125;SDS011;13106;50.808;5.670;2022-12-20T06:03:34;2.33;;;1.30;;
25125;SDS011;13106;50.808;5.670;2022-12-20T06:06:00;1.40;;;1.20;;
25125;SDS011;13106;50.808;5.670;2022-12-20T06:08:27;4.72;;;1.60;;
25125;SDS011;13106;50.808;5.670;2022-12-20T06:10:53;2.85;;;1.40;;
25125;SDS011;13106;50.808;5.670;2022-12-20T06:13:19;2.83;;;1.60;;
25125;SDS011;13106;50.808;5.670;2022-12-20T06:15:45;2.83;;;1.20;;
25125;SDS011;13106;50.808;5.670;2022-12-20T06:18:11;1.65;;;1.10;;
25125;SDS011;13106;50.808;5.670;2022-12-20T06:20:37;2.55;;;1.50;;
25125;SDS011;13106;50.808;5.670;2022-12-20T06:23:03;1.63;;;1.20;;
25125;SDS011;13106;50.808;5.670;2022-12-20T06:25:30;3.75;;;1.40;;
25125;SDS011;13106;50.808;5.670;2022-12-20T06:27:56;2.65;;;1.42;;
25125;SDS011;13106;50.808;5.670;2022-12-20T06:30:22;1.55;;;1.20;;
25125;SDS011;13106;50.808;5.670;2022-12-20T06:32:48;1.73;;;1.20;;
25125;SDS011;13106;50.808;5.670;2022-12-20T06:35:14;2.60;;;1.30;;
25125;SDS011;13106;50.808;5.670;2022-12-20T06:37:41;3.05;;;1.20;;
25125;SDS011;13106;50.808;5.670;2022-12-20T06:40:08;1.60;;;1.10;;
25125;SDS011;13106;50.808;5.670;2022-12-20T06:42:34;5.82;;;1.40;;
25125;SDS011;13106;50.808;5.670;2022-12-20T06:45:00;4.03;;;1.33;;
25125;SDS011;13106;50.808;5.670;2022-12-20T06:47:26;3.13;;;1.20;;
25125;SDS011;13106;50.808;5.670;2022-12-20T06:49:53;2.88;;;1.20;;
25125;SDS011;13106;50.808;5.670;2022-12-20T06:52:19;3.00;;;1.10;;
25125;SDS011;13106;50.808;5.670;2022-12-20T06:54:44;7.10;;;1.52;;
25125;SDS011;13106;50.808;5.670;2022-12-20T06:57:11;1.70;;;1.30;;
25125;SDS011;13106;50.808;5.670;2022-12-20T06:59:37;2.35;;;1.25;;
25125;SDS011;13106;50.808;5.670;2022-12-20T07:02:03;1.80;;;1.30;;
25125;SDS011;13106;50.808;5.670;2022-12-20T07:04:29;1.13;;;1.02;;
25125;SDS011;13106;50.808;5.670;2022-12-20T07:06:55;3.25;;;1.25;;
25125;SDS011;13106;50.808;5.670;2022-12-20T07:09:21;4.85;;;1.50;;
25125;SDS011;13106;50.808;5.670;2022-12-20T07:11:47;2.50;;;1.50;;
25125;SDS011;13106;50.808;5.670;2022-12-20T07:14:13;2.20;;;1.20;;
25125;SDS011;13106;50.808;5.670;2022-12-20T07:16:39;1.90;;;1.13;;
25125;SDS011;13106;50.808;5.670;2022-12-20T07:19:09;1.25;;;1.13;;
25125;SDS011;13106;50.808;5.670;2022-12-20T07:21:36;2.67;;;1.20;;
25125;SDS011;13106;50.808;5.670;2022-12-20T07:24:02;11.13;;;1.98;;
25125;SDS011;13106;50.808;5.670;2022-12-20T07:26:28;2.40;;;1.25;;
25125;SDS011;13106;50.808;5.670;2022-12-20T07:28:54;3.03;;;1.55;;
25125;SDS011;13106;50.808;5.670;2022-12-20T07:31:20;2.80;;;1.63;;
25125;SDS011;13106;50.808;5.670;2022-12-20T07:33:46;1.98;;;1.20;;
25125;SDS011;13106;50.808;5.670;2022-12-20T07:36:12;1.83;;;1.33;;
25125;SDS011;13106;50.808;5.670;2022-12-20T07:38:40;2.80;;;1.17;;
25125;SDS011;13106;50.808;5.670;2022-12-20T07:41:06;2.65;;;1.60;;
25125;SDS011;13106;50.808;5.670;2022-12-20T07:43:32;3.72;;;1.40;;
25125;SDS011;13106;50.808;5.670;2022-12-20T07:45:58;2.20;;;1.40;;
25125;SDS011;13106;50.808;5.670;2022-12-20T07:48:24;5.20;;;1.50;;
25125;SDS011;13106;50.808;5.670;2022-12-20T07:50:51;3.58;;;1.42;;
25125;SDS011;13106;50.808;5.670;2022-12-20T07:53:18;4.22;;;1.50;;
25125;SDS011;13106;50.808;5.670;2022-12-20T07:55:45;1.90;;;1.40;;
25125;SDS011;13106;50.808;5.670;2022-12-20T07:58:11;2.67;;;1.50;;
25125;SDS011;13106;50.808;5.670;2022-12-20T08:00:37;3.40;;;3.10;;
25125;SDS011;13106;50.808;5.670;2022-12-20T08:03:05;3.10;;;1.40;;
25125;SDS011;13106;50.808;5.670;2022-12-20T08:05:32;6.97;;;1.38;;
25125;SDS011;13106;50.808;5.670;2022-12-20T08:07:59;5.10;;;1.30;;
25125;SDS011;13106;50.808;5.670;2022-12-20T08:10:27;2.00;;;1.13;;
25125;SDS011;13106;50.808;5.670;2022-12-20T08:12:54;2.70;;;1.10;;
25125;SDS011;13106;50.808;5.670;2022-12-20T08:15:20;2.20;;;1.65;;
25125;SDS011;13106;50.808;5.670;2022-12-20T08:17:47;3.05;;;1.20;;
25125;SDS011;13106;50.808;5.670;2022-12-20T08:20:13;1.70;;;1.02;;
25125;SDS011;13106;50.808;5.670;2022-12-20T08:22:39;1.40;;;1.00;;
25125;SDS011;13106;50.808;5.670;2022-12-20T08:25:06;2.33;;;1.17;;
25125;SDS011;13106;50.808;5.670;2022-12-20T08:27:32;2.45;;;1.33;;
25125;SDS011;13106;50.808;5.670;2022-12-20T08:29:58;2.17;;;1.27;;
25125;SDS011;13106;50.808;5.670;2022-12-20T08:32:24;2.33;;;1.42;;
25125;SDS011;13106;50.808;5.670;2022-12-20T08:34:51;3.50;;;1.52;;
25125;SDS011;13106;50.808;5.670;2022-12-20T08:37:17;2.08;;;1.10;;
25125;SDS011;13106;50.808;5.670;2022-12-20T08:39:43;1.90;;;1.10;;
25125;SDS011;13106;50.808;5.670;2022-12-20T08:42:10;3.03;;;1.30;;
25125;SDS011;13106;50.808;5.670;2022-12-20T08:44:36;4.82;;;1.50;;
25125;SDS011;13106;50.808;5.670;2022-12-20T08:47:02;2.50;;;1.35;;
25125;SDS011;13106;50.808;5.670;2022-12-20T08:49:28;3.10;;;1.33;;
25125;SDS011;13106;50.808;5.670;2022-12-20T08:51:54;4.38;;;1.50;;
25125;SDS011;13106;50.808;5.670;2022-12-20T08:54:20;2.97;;;1.30;;
25125;SDS011;13106;50.808;5.670;2022-12-20T08:56:46;2.42;;;1.20;;
25125;SDS011;13106;50.808;5.670;2022-12-20T08:59:12;2.70;;;1.30;;
25125;SDS011;13106;50.808;5.670;2022-12-20T09:01:38;4.38;;;1.67;;
25125;SDS011;13106;50.808;5.670;2022-12-20T09:04:05;4.15;;;1.40;;
25125;SDS011;13106;50.808;5.670;2022-12-20T09:06:31;3.53;;;1.50;;
25125;SDS011;13106;50.808;5.670;2022-12-20T09:08:59;3.58;;;1.60;;
25125;SDS011;13106;50.808;5.670;2022-12-20T09:11:25;4.53;;;1.48;;
25125;SDS011;13106;50.808;5.670;2022-12-20T09:13:52;2.42;;;1.33;;
25125;SDS011;13106;50.808;5.670;2022-12-20T09:16:20;2.72;;;1.50;;
25125;SDS011;13106;50.808;5.670;2022-12-20T09:18:47;4.35;;;1.38;;
25125;SDS011;13106;50.808;5.670;2022-12-20T09:21:14;3.63;;;1.40;;
25125;SDS011;13106;50.808;5.670;2022-12-20T09:23:40;1.42;;;1.33;;
25125;SDS011;13106;50.808;5.670;2022-12-20T09:26:07;2.72;;;1.35;;
25125;SDS011;13106;50.808;5.670;2022-12-20T09:28:33;5.35;;;1.30;;
25125;SDS011;13106;50.808;5.670;2022-12-20T09:30:59;3.80;;;1.70;;
25125;SDS011;13106;50.808;5.670;2022-12-20T09:33:26;3.72;;;1.58;;
25125;SDS011;13106;50.808;5.670;2022-12-20T09:35:52;4.72;;;1.55;;
25125;SDS011;13106;50.808;5.670;2022-12-20T09:38:19;4.22;;;1.60;;
25125;SDS011;13106;50.808;5.670;2022-12-20T09:40:52;4.88;;;1.70;;
25125;SDS011;13106;50.808;5.670;2022-12-20T09:43:19;5.50;;;1.70;;
25125;SDS011;13106;50.808;5.670;2022-12-20T09:45:46;4.22;;;1.50;;
25125;SDS011;13106;50.808;5.670;2022-12-20T09:48:17;2.80;;;1.50;;
25125;SDS011;13106;50.808;5.670;2022-12-20T09:50:55;5.07;;;1.98;;
25125;SDS011;13106;50.808;5.670;2022-12-20T09:56:09;5.10;;;2.22;;
25125;SDS011;13106;50.808;5.670;2022-12-20T10:01:13;6.93;;;3.15;;
25125;SDS011;13106;50.808;5.670;2022-12-20T10:03:40;9.27;;;3.55;;
25125;SDS011;13106;50.808;5.670;2022-12-20T10:09:12;5.85;;;2.63;;
25125;SDS011;13106;50.808;5.670;2022-12-20T10:14:42;4.65;;;2.30;;
25125;SDS011;13106;50.808;5.670;2022-12-20T10:19:54;5.20;;;1.98;;
25125;SDS011;13106;50.808;5.670;2022-12-20T10:22:25;5.85;;;2.47;;
25125;SDS011;13106;50.808;5.670;2022-12-20T10:24:56;3.78;;;1.67;;
25125;SDS011;13106;50.808;5.670;2022-12-20T10:27:24;3.20;;;1.90;;
25125;SDS011;13106;50.808;5.670;2022-12-20T10:29:50;5.13;;;2.10;;
25125;SDS011;13106;50.808;5.670;2022-12-20T10:32:18;3.92;;;1.85;;
25125;SDS011;13106;50.808;5.670;2022-12-20T10:37:31;4.50;;;1.83;;
25125;SDS011;13106;50.808;5.670;2022-12-20T10:39:57;2.80;;;1.77;;
25125;SDS011;13106;50.808;5.670;2022-12-20T10:42:38;6.18;;;1.60;;
25125;SDS011;13106;50.808;5.670;2022-12-20T10:45:26;4.70;;;2.08;;
25125;SDS011;13106;50.808;5.670;2022-12-20T10:47:56;4.35;;;2.03;;
25125;SDS011;13106;50.808;5.670;2022-12-20T10:50:23;3.83;;;1.65;;
25125;SDS011;13106;50.808;5.670;2022-12-20T10:55:48;5.68;;;1.83;;
25125;SDS011;13106;50.808;5.670;2022-12-20T11:00:47;4.15;;;1.80;;
25125;SDS011;13106;50.808;5.670;2022-12-20T11:05:39;5.90;;;1.83;;
25125;SDS011;13106;50.808;5.670;2022-12-20T11:08:08;3.15;;;1.65;;
25125;SDS011;13106;50.808;5.670;2022-12-20T11:10:37;4.57;;;1.90;;
25125;SDS011;13106;50.808;5.670;2022-12-20T11:13:03;3.00;;;1.70;;
25125;SDS011;13106;50.808;5.670;2022-12-20T11:15:31;6.60;;;2.17;;
25125;SDS011;13106;50.808;5.670;2022-12-20T11:17:59;4.60;;;1.70;;
25125;SDS011;13106;50.808;5.670;2022-12-20T11:33:32;2.13;;;1.48;;
25125;SDS011;13106;50.808;5.670;2022-12-20T11:41:36;4.43;;;2.53;;
25125;SDS011;13106;50.808;5.670;2022-12-20T11:51:44;3.17;;;2.35;;
25125;SDS011;13106;50.808;5.670;2022-12-20T11:54:16;3.13;;;2.15;;
25125;SDS011;13106;50.808;5.670;2022-12-20T11:56:45;5.18;;;2.28;;
25125;SDS011;13106;50.808;5.670;2022-12-20T11:59:17;4.53;;;2.53;;
25125;SDS011;13106;50.808;5.670;2022-12-20T12:01:46;5.47;;;2.10;;
25125;SDS011;13106;50.808;5.670;2022-12-20T12:06:56;4.00;;;2.90;;
25125;SDS011;13106;50.808;5.670;2022-12-20T12:09:34;4.88;;;2.40;;
25125;SDS011;13106;50.808;5.670;2022-12-20T12:12:02;4.72;;;2.28;;
25125;SDS011;13106;50.808;5.670;2022-12-20T12:17:23;5.45;;;2.08;;
25125;SDS011;13106;50.808;5.670;2022-12-20T12:19:50;3.17;;;2.75;;
25125;SDS011;13106;50.808;5.670;2022-12-20T12:22:19;3.33;;;2.42;;
25125;SDS011;13106;50.808;5.670;2022-12-20T12:24:50;6.45;;;2.70;;
25125;SDS011;13106;50.808;5.670;2022-12-20T12:29:43;4.85;;;2.45;;
25125;SDS011;13106;50.808;5.670;2022-12-20T12:32:13;4.47;;;2.60;;
25125;SDS011;13106;50.808;5.670;2022-12-20T12:35:02;3.75;;;2.33;;
25125;SDS011;13106;50.808;5.670;2022-12-20T12:45:20;5.45;;;2.00;;
25125;SDS011;13106;50.808;5.670;2022-12-20T12:47:49;3.63;;;2.22;;
25125;SDS011;13106;50.808;5.670;2022-12-20T12:50:22;3.13;;;2.40;;
25125;SDS011;13106;50.808;5.670;2022-12-20T12:52:51;6.47;;;2.30;;
25125;SDS011;13106;50.808;5.670;2022-12-20T12:58:28;5.75;;;1.90;;
25125;SDS011;13106;50.808;5.670;2022-12-20T13:03:38;3.63;;;2.08;;
25125;SDS011;13106;50.808;5.670;2022-12-20T13:11:31;8.07;;;2.35;;
25125;SDS011;13106;50.808;5.670;2022-12-20T13:16:37;5.03;;;2.08;;
25125;SDS011;13106;50.808;5.670;2022-12-20T13:19:14;8.70;;;2.40;;
25125;SDS011;13106;50.808;5.670;2022-12-20T13:21:42;6.78;;;2.42;;
25125;SDS011;13106;50.808;5.670;2022-12-20T13:43:15;5.07;;;2.30;;
25125;SDS011;13106;50.808;5.670;2022-12-20T13:48:31;7.65;;;3.28;;
25125;SDS011;13106;50.808;5.670;2022-12-20T13:51:00;5.88;;;2.70;;
25125;SDS011;13106;50.808;5.670;2022-12-20T13:53:27;4.38;;;2.65;;
25125;SDS011;13106;50.808;5.670;2022-12-20T13:55:53;4.43;;;2.30;;
25125;SDS011;13106;50.808;5.670;2022-12-20T13:58:52;4.88;;;2.33;;
25125;SDS011;13106;50.808;5.670;2022-12-20T14:01:12;4.60;;;2.17;;
25125;SDS011;13106;50.808;5.670;2022-12-20T14:03:39;3.88;;;2.25;;
25125;SDS011;13106;50.808;5.670;2022-12-20T14:06:08;5.45;;;2.47;;
25125;SDS011;13106;50.808;5.670;2022-12-20T14:08:36;6.32;;;2.15;;
25125;SDS011;13106;50.808;5.670;2022-12-20T14:11:12;3.92;;;3.47;;
25125;SDS011;13106;50.808;5.670;2022-12-20T14:13:39;4.68;;;2.45;;
25125;SDS011;13106;50.808;5.670;2022-12-20T14:16:06;3.25;;;2.17;;
25125;SDS011;13106;50.808;5.670;2022-12-20T14:18:32;6.55;;;2.17;;
25125;SDS011;13106;50.808;5.670;2022-12-20T14:21:00;3.33;;;1.95;;
25125;SDS011;13106;50.808;5.670;2022-12-20T14:23:38;5.55;;;2.45;;
25125;SDS011;13106;50.808;5.670;2022-12-20T14:26:05;6.60;;;2.10;;
25125;SDS011;13106;50.808;5.670;2022-12-20T14:28:38;3.92;;;1.85;;
25125;SDS011;13106;50.808;5.670;2022-12-20T14:31:06;3.10;;;1.88;;
25125;SDS011;13106;50.808;5.670;2022-12-20T14:33:34;5.85;;;2.00;;
25125;SDS011;13106;50.808;5.670;2022-12-20T14:36:18;3.75;;;2.80;;
25125;SDS011;13106;50.808;5.670;2022-12-20T14:38:48;5.07;;;2.17;;
25125;SDS011;13106;50.808;5.670;2022-12-20T14:43:54;5.35;;;2.30;;
25125;SDS011;13106;50.808;5.670;2022-12-20T14:46:21;4.82;;;2.35;;
25125;SDS011;13106;50.808;5.670;2022-12-20T14:48:47;5.13;;;2.28;;
25125;SDS011;13106;50.808;5.670;2022-12-20T14:51:18;6.00;;;2.38;;
25125;SDS011;13106;50.808;5.670;2022-12-20T14:53:45;2.97;;;1.92;;
25125;SDS011;13106;50.808;5.670;2022-12-20T14:56:13;5.18;;;2.42;;
25125;SDS011;13106;50.808;5.670;2022-12-20T14:58:39;3.47;;;1.88;;
25125;SDS011;13106;50.808;5.670;2022-12-20T15:01:16;4.90;;;2.78;;
25125;SDS011;13106;50.808;5.670;2022-12-20T15:03:52;3.63;;;2.28;;
25125;SDS011;13106;50.808;5.670;2022-12-20T15:06:52;4.88;;;2.58;;
25125;SDS011;13106;50.808;5.670;2022-12-20T15:09:14;3.03;;;2.13;;
25125;SDS011;13106;50.808;5.670;2022-12-20T15:11:40;4.13;;;2.15;;
25125;SDS011;13106;50.808;5.670;2022-12-20T15:14:31;3.75;;;1.90;;
25125;SDS011;13106;50.808;5.670;2022-12-20T15:16:53;3.65;;;2.13;;
25125;SDS011;13106;50.808;5.670;2022-12-20T15:19:19;4.43;;;2.00;;
25125;SDS011;13106;50.808;5.670;2022-12-20T15:21:45;4.05;;;2.08;;
25125;SDS011;13106;50.808;5.670;2022-12-20T15:24:12;4.20;;;2.35;;
25125;SDS011;13106;50.808;5.670;2022-12-20T15:26:39;2.92;;;2.20;;
25125;SDS011;13106;50.808;5.670;2022-12-20T15:29:05;6.13;;;2.35;;
25125;SDS011;13106;50.808;5.670;2022-12-20T15:31:34;6.05;;;2.30;;
25125;SDS011;13106;50.808;5.670;2022-12-20T15:34:22;13.07;;;2.87;;
25125;SDS011;13106;50.808;5.670;2022-12-20T15:36:50;3.15;;;2.10;;
25125;SDS011;13106;50.808;5.670;2022-12-20T15:39:16;4.22;;;2.13;;
25125;SDS011;13106;50.808;5.670;2022-12-20T15:41:43;4.45;;;2.85;;
25125;SDS011;13106;50.808;5.670;2022-12-20T15:44:12;3.20;;;2.40;;
25125;SDS011;13106;50.808;5.670;2022-12-20T15:46:39;6.15;;;2.35;;
25125;SDS011;13106;50.808;5.670;2022-12-20T15:49:05;4.53;;;3.15;;
25125;SDS011;13106;50.808;5.670;2022-12-20T15:51:32;4.13;;;2.40;;
25125;SDS011;13106;50.808;5.670;2022-12-20T15:53:59;4.68;;;2.25;;
25125;SDS011;13106;50.808;5.670;2022-12-20T15:56:27;5.75;;;2.72;;
25125;SDS011;13106;50.808;5.670;2022-12-20T15:58:54;4.97;;;3.80;;
25125;SDS011;13106;50.808;5.670;2022-12-20T16:01:28;5.22;;;2.83;;
25125;SDS011;13106;50.808;5.670;2022-12-20T16:03:54;6.43;;;3.30;;
25125;SDS011;13106;50.808;5.670;2022-12-20T16:06:20;4.35;;;3.20;;
25125;SDS011;13106;50.808;5.670;2022-12-20T16:08:47;4.63;;;2.53;;
25125;SDS011;13106;50.808;5.670;2022-12-20T16:13:45;5.50;;;2.80;;
25125;SDS011;13106;50.808;5.670;2022-12-20T16:16:19;5.05;;;2.40;;
25125;SDS011;13106;50.808;5.670;2022-12-20T16:18:45;5.32;;;4.80;;
25125;SDS011;13106;50.808;5.670;2022-12-20T16:21:15;6.95;;;2.60;;
25125;SDS011;13106;50.808;5.670;2022-12-20T16:23:42;6.40;;;4.85;;
25125;SDS011;13106;50.808;5.670;2022-12-20T16:26:15;5.07;;;4.60;;
25125;SDS011;13106;50.808;5.670;2022-12-20T16:28:43;4.63;;;3.35;;
25125;SDS011;13106;50.808;5.670;2022-12-20T16:31:26;6.60;;;6.05;;
25125;SDS011;13106;50.808;5.670;2022-12-20T16:33:53;5.13;;;4.65;;
25125;SDS011;13106;50.808;5.670;2022-12-20T16:36:20;5.82;;;3.22;;
25125;SDS011;13106;50.808;5.670;2022-12-20T16:38:46;8.13;;;5.40;;
25125;SDS011;13106;50.808;5.670;2022-12-20T16:41:14;6.03;;;3.75;;
25125;SDS011;13106;50.808;5.670;2022-12-20T16:43:41;8.50;;;5.85;;
25125;SDS011;13106;50.808;5.670;2022-12-20T16:46:11;6.82;;;4.03;;
25125;SDS011;13106;50.808;5.670;2022-12-20T16:48:38;9.20;;;4.68;;
25125;SDS011;13106;50.808;5.670;2022-12-20T16:53:54;4.32;;;3.65;;
25125;SDS011;13106;50.808;5.670;2022-12-20T16:56:20;5.63;;;3.25;;
25125;SDS011;13106;50.808;5.670;2022-12-20T16:58:46;6.80;;;5.85;;